MDT,Max TemperatureF,Mean TemperatureF,Min TemperatureF,Max Dew PointF,MeanDew PointF,Min DewpointF,Max Humidity, Mean Humidity, Min Humidity, Max Sea Level PressureIn, Mean Sea Level PressureIn, Min Sea Level PressureIn, Max VisibilityMiles, Mean VisibilityMiles, Min VisibilityMiles, Max Wind SpeedMPH, Mean Wind SpeedMPH, Max Gust SpeedMPH,PrecipitationIn, CloudCover, Events, WindDirDegrees
2013-8-1,72,60,48,54,46,38,93,64,34,30.38,30.07,29.98,10,10,7,21,5,24,0.20,5,Rain,173
2013-8-2,76,61,45,51,47,40,93,60,27,30.06,29.99,29.93,10,10,10,13,5,17,0.00,2,,267
2013-8-3,78,63,47,50,45,42,80,56,31,30.35,30.03,29.96,10,10,10,20,7,24,0.01,2,Thunderstorm,182
2013-8-4,78,62,45,53,46,40,96,63,29,30.39,30.11,30.00,10,10,10,25,5,36,0.24,3,Rain-Thunderstorm,188
2013-8-5,73,59,45,53,48,44,100,69,38,30.13,30.04,29.97,10,10,10,15,4,20,0.12,2,Rain-Thunderstorm,206
2013-8-6,73,60,46,50,47,42,96,66,35,30.36,30.03,29.92,10,10,10,23,5,38,0.06,3,Rain-Thunderstorm,231
2013-8-7,65,56,46,50,45,41,93,68,43,30.10,30.00,29.92,10,10,10,22,5,29,0.05,4,Rain,160
2013-8-8,70,59,47,46,42,37,93,63,32,30.26,30.00,29.92,10,10,10,24,7,35,0.00,3,Thunderstorm,154
2013-8-9,71,57,42,43,40,36,89,60,31,30.31,30.05,29.97,10,10,10,20,5,32,T,3,Thunderstorm,193
2013-8-10,75,59,42,47,39,29,82,51,19,30.19,30.10,30.03,10,10,10,13,6,17,0.04,2,Thunderstorm,269
2013-8-11,76,58,40,44,38,26,92,54,16,30.22,30.09,29.98,10,10,10,17,5,24,0.00,1,,215
2013-8-12,75,58,41,46,40,34,92,59,25,30.40,30.09,30.00,10,10,5,28,6,39,0.08,3,Rain-Thunderstorm,151
2013-8-13,72,56,40,46,42,37,92,62,31,30.39,30.12,30.08,10,10,10,25,5,33,0.01,2,Rain-Thunderstorm,203
2013-8-14,77,59,40,40,35,27,86,51,16,30.36,30.10,30.01,10,10,10,20,6,30,0.00,2,,185
2013-8-15,81,62,42,37,31,18,65,38,10,30.13,30.05,29.98,10,10,10,18,6,26,0.00,1,,229
2013-8-16,83,64,45,35,29,20,65,38,10,30.09,30.03,29.96,10,10,10,16,7,25,0.00,0,,224
2013-8-17,84,67,50,42,32,20,55,33,10,30.10,30.00,29.91,10,10,10,15,5,24,0.00,1,,213
2013-8-18,80,64,47,49,41,37,71,47,23,30.11,30.02,29.95,10,10,10,28,7,35,T,2,Rain,176
2013-8-19,85,65,45,43,39,27,83,48,13,30.27,30.01,29.88,10,10,10,22,6,31,0.00,1,,143
2013-8-20,83,66,49,53,43,34,86,52,17,30.34,29.97,29.83,10,10,10,24,6,32,T,3,Rain-Thunderstorm,179
2013-8-21,81,63,45,50,43,37,93,58,23,30.13,30.01,29.93,10,10,10,18,6,23,0.00,1,,161
2013-8-22,80,66,51,54,46,42,93,61,28,30.35,30.06,29.88,10,10,2,28,5,39,0.31,4,Rain-Thunderstorm,169
2013-8-23,79,63,46,54,49,44,100,65,30,30.29,29.97,29.82,10,10,4,17,4,25,0.10,3,Rain-Thunderstorm,268
2013-8-24,72,59,45,50,45,40,93,65,36,30.04,29.99,29.94,10,10,10,22,5,29,0.00,4,,189
2013-8-25,73,62,50,55,49,45,100,69,38,30.12,30.06,30.00,10,10,9,16,2,21,0.02,5,Rain,339
2013-8-26,76,64,51,54,52,48,100,71,41,30.15,30.08,30.00,10,10,10,14,5,22,T,6,Rain,335
2013-8-27,82,65,47,52,48,44,93,61,28,30.34,30.04,29.89,10,10,10,16,6,22,T,1,Rain-Thunderstorm,251
2013-8-28,81,65,48,55,48,41,89,58,27,30.35,30.03,29.93,10,10,10,17,5,21,0.01,2,Rain-Thunderstorm,207
2013-8-29,83,65,47,52,46,40,86,55,23,30.45,30.11,29.98,10,10,10,20,8,26,T,3,Rain-Thunderstorm,174
2013-8-30,80,65,50,55,49,41,93,60,27,30.46,30.12,29.98,10,9,2,29,6,38,0.28,4,Rain-Thunderstorm,210
2013-8-31,78,64,50,54,50,44,100,65,30,30.37,30.05,29.90,10,10,6,17,5,23,0.08,5,Rain-Thunderstorm,165